CVB weather

Castroville Municipal Airport
Castroville, Texas, United States

Public forecast

Using degrees Fahrenheit for public forecast. Weather courtesy of forecast.io.

METAR (pilot weather report)

Retrieved 2019/06/24 08:35 UTC (0 seconds ago):

KCVB 240835Z AUTO 13006KT 5SM BR BKN011 27/25 A2982 RMK AO2 T02650253

TAF (pilot weather forecast)

Forecast is more than 6 hours old.

Closest forecast is Lackland Air Force Base, 14.3 nm (26.6 km) E. Retrieved 2019/06/24 02:06 UTC (6 hours ago):

TAF TAF KSKF 240200Z 2402/2508 15010G15KT 9999 FEW030 BKN250 QNH2970INS BECMG 2407/2408 15009KT 9999 OVC017 QNH2981INS BECMG 2415/2416 11012G20KT 9999 SCT030 QNH2974INS BECMG 2502/2503 12009KT 9999 FEW018 QNH2978INS TX33/2423Z TN25/2411Z